Nearby METAR Reports

 

KMTN - Baltimore/Martin, Maryland, USA
Distance from station: SSE 8mi, 13km
Updated: Sun, 20-Apr-2014 3:50pm EDT
Partly cloudy
Partly cloudy
 Wind from ENE
Wind: ENE 9 mph , 15 km/h
Temperature: 61°F , 16°C
Dew Point: 37°F , 3°C
Humidity: 42%
Barometer: 30.38 inHg , 1028.8 hPa
Clouds: Partly cloudy
Visibility: 10 miles , 16 km
Cloud details: Partly cloudy 18000 ft
2014/04/20 19:50 KMTN 201950Z 07008KT 10SM SCT180 16/03 A3038
KDMH - Baltimore/Dwntwn, Maryland, USA
Distance from station: SW 12mi, 19km
Updated: Sun, 20-Apr-2014 3:54pm EDT

 
Temperature: 61°F , 16°C
Dew Point: 36°F , 2°C
Humidity: 39%
Barometer: 30.37 inHg , 1028.4 hPa
2014/04/20 19:54 KDMH 201954Z AUTO 16/02 A3037 RMK AO1 SLP284 T01560017
 
KBWI - Balto/Wash Intl, Maryland, USA
Distance from station: SSW 20mi, 33km
Updated: Sun, 20-Apr-2014 3:54pm EDT
Mostly cloudy
Mostly cloudy
 Wind from NE
Wind: NE 12 mph , 19 km/h, Gust: 18 mph , 30 km/h
Temperature: 59°F , 15°C
Dew Point: 36°F , 2°C
Humidity: 42%
Barometer: 30.36 inHg , 1028.1 hPa
Clouds: Mostly cloudy
Visibility: 10 miles , 16 km
Cloud details: Few Clouds 20000 ft
Mostly cloudy 25000 ft
2014/04/20 19:54 KBWI 201954Z 05010G16KT 10SM FEW200 BKN250 15/02 A3036 RMK AO2 SLP279 T01500017
KDMW - Carroll Cnty, Maryland, USA
Distance from station: WNW 30mi, 48km
Updated: Sun, 20-Apr-2014 4:45pm EDT
Clear
Clear
 Wind from ESE
Wind: ESE 6 mph , 9 km/h
Temperature: 64°F , 18°C
Dew Point: 30°F , -1°C
Humidity: 28%
Barometer: 30.33 inHg , 1027.1 hPa
Clouds: Clear
Visibility: 10 miles , 16 km
2014/04/20 20:45 KDMW 202045Z AUTO 12005KT 10SM CLR 18/M01 A3033 RMK AO2
 
KNAK - Annapolis/Naval, Maryland, USA
Distance from station: S 30mi, 48km
Updated: Sun, 20-Apr-2014 3:54pm EDT
Clear
Clear
 Wind from NE
Wind: NE 8 mph , 13 km/h
Temperature: 57°F , 14°C
Dew Point: 36°F , 2°C
Humidity: 44%
Barometer: 30.36 inHg , 1028.1 hPa
Clouds: Clear
Visibility: 10 miles , 16 km
2014/04/20 19:54 KNAK 201954Z AUTO 05007KT 10SM CLR 14/02 A3036 RMK AO2 SLP282 T01440022
KW29 - Stevensville, Maryland, USA
Distance from station: SSE 31mi, 50km
Updated: Sun, 20-Apr-2014 4:45pm EDT
Clear
Clear
 Wind from E
Wind: E 9 mph , 15 km/h
Temperature: 59°F , 15°C
Dew Point: 32°F , 0°C
Humidity: 36%
Barometer: 30.36 inHg , 1028.1 hPa
Clouds: Clear
Visibility: 10 miles , 16 km
2014/04/20 20:45 KW29 202045Z AUTO 10008KT 10SM CLR 15/00 A3036 RMK AO1
 
KCGS - College Park, Maryland, USA
Distance from station: SW 38mi, 61km
Updated: Sun, 20-Apr-2014 4:45pm EDT
Clear
Clear
 Wind from E
Wind: E 5 mph , 7 km/h
Temperature: 63°F , 17°C
Dew Point: 34°F , 1°C
Humidity: 34%
Barometer: 30.35 inHg , 1027.8 hPa
Clouds: Clear
Visibility: 10 miles , 16 km
2014/04/20 20:45 KCGS 202045Z AUTO 08004KT 10SM CLR 17/01 A3035 RMK AO1
KGAI - Gaithersburg, Maryland, USA
Distance from station: WSW 40mi, 65km
Updated: Sun, 20-Apr-2014 4:35pm EDT
Clear
Clear
 Wind from E
Wind: E 5 mph , 7 km/h
Temperature: 59°F , 15°C
Dew Point: 34°F , 1°C
Humidity: 39%
Barometer: 30.37 inHg , 1028.4 hPa
Clouds: Clear
Visibility: 10 miles , 16 km
2014/04/20 20:35 KGAI 202035Z AUTO 08004KT 10SM CLR 15/01 A3037 RMK AO1
 
KTHV - York, Pennsylvania, USA
Distance from station: NNW 40mi, 65km
Updated: Sun, 20-Apr-2014 3:53pm EDT
Clear
Clear
 Wind from E
Wind: E 7 mph , 11 km/h
Temperature: 64°F , 18°C
Dew Point: 34°F , 1°C
Humidity: 32%
Barometer: 30.34 inHg , 1027.4 hPa
Clouds: Clear
Visibility: 10 miles , 16 km
2014/04/20 19:53 KTHV 201953Z AUTO 09006KT 10SM CLR 18/01 A3034 RMK AO2 SLP276 T01780011
KFDK - Frederick, Maryland, USA
Distance from station: W 47mi, 75km
Updated: Sun, 20-Apr-2014 4:45pm EDT
Clear
Clear
 Wind from varies
Wind: varies 6 mph , 9 km/h
Temperature: 64°F , 18°C
Dew Point: 37°F , 3°C
Humidity: 37%
Barometer: 30.35 inHg , 1027.8 hPa
Clouds: Clear
Visibility: 10 miles , 16 km
2014/04/20 20:45 KFDK 202045Z VRB05KT 10SM SKC 18/03 A3035
 
KESN - Easton/Newnam, Maryland, USA
Distance from station: SSE 48mi, 78km
Updated: Sun, 20-Apr-2014 4:50pm EDT
Mostly cloudy
Mostly cloudy
 Wind from E
Wind: E 13 mph , 20 km/h, Gust: 18 mph , 30 km/h
Temperature: 57°F , 14°C
Dew Point: 36°F , 2°C
Humidity: 44%
Barometer: 30.40 inHg , 1029.5 hPa
Clouds: Mostly cloudy
Visibility: 10 miles , 16 km
Cloud details: Mostly cloudy 25000 ft
2014/04/20 20:50 KESN 202050Z 09011G16KT 10SM BKN250 14/02 A3040
KDCA - Washington/Natl, Washington D.c., USA
Distance from station: SW 49mi, 79km
Updated: Sun, 20-Apr-2014 4:52pm EDT
Mostly cloudy
Mostly cloudy
 Wind from E
Wind: E 9 mph , 15 km/h
Temperature: 63°F , 17°C
Dew Point: 36°F , 2°C
Humidity: 37%
Barometer: 30.34 inHg , 1027.4 hPa
Clouds: Mostly cloudy
Visibility: 10 miles , 16 km
Cloud details: Mostly cloudy 25000 ft
2014/04/20 20:52 KDCA 202052Z 09008KT 10SM BKN250 17/02 A3034 RMK AO2 SLP275 T01720022 560
 
KLNS - Lancaster, Pennsylvania, USA
Distance from station: N 49mi, 79km
Updated: Sun, 20-Apr-2014 3:53pm EDT
Clear
Clear
 Wind from varies
Wind: varies 7 mph , 11 km/h
Temperature: 59°F , 15°C
Dew Point: 34°F , 1°C
Humidity: 39%
Barometer: 30.35 inHg , 1027.8 hPa
Clouds: Clear
Visibility: 10 miles , 16 km
2014/04/20 19:53 KLNS 201953Z AUTO VRB06KT 10SM CLR 15/01 A3035 RMK AO2 SLP279 T01500011
KILG - Wilmington, Delaware, USA
Distance from station: ENE 50mi, 81km
Updated: Sun, 20-Apr-2014 4:51pm EDT
Clear
Clear
 Wind from ENE
Wind: ENE 12 mph , 19 km/h
Temperature: 61°F , 16°C
Dew Point: 30°F , -1°C
Humidity: 31%
Barometer: 30.38 inHg , 1028.8 hPa
Clouds: Clear
Visibility: 10 miles , 16 km
2014/04/20 20:51 KILG 202051Z AUTO 06010KT 10SM CLR 16/M01 A3038 RMK AO2 SLP289 T01561006 56017 TSNO